sensor_id;sensor_type;location;lat;lon;timestamp;temperature;humidity
15257;DHT22;7731;50.720;6.912;2022-08-01T00:00:15;22.00;1.00
15257;DHT22;7731;50.720;6.912;2022-08-01T00:02:48;22.00;1.00
15257;DHT22;7731;50.720;6.912;2022-08-01T00:05:19;22.10;1.00
15257;DHT22;7731;50.720;6.912;2022-08-01T00:07:49;22.10;1.00
15257;DHT22;7731;50.720;6.912;2022-08-01T00:10:20;22.20;1.00
15257;DHT22;7731;50.720;6.912;2022-08-01T00:12:51;22.10;1.00
15257;DHT22;7731;50.720;6.912;2022-08-01T00:15:21;22.20;1.00
15257;DHT22;7731;50.720;6.912;2022-08-01T00:17:54;22.20;1.00
15257;DHT22;7731;50.720;6.912;2022-08-01T00:20:24;22.30;1.00
15257;DHT22;7731;50.720;6.912;2022-08-01T00:22:55;22.10;1.00
15257;DHT22;7731;50.720;6.912;2022-08-01T00:25:29;22.20;1.00
15257;DHT22;7731;50.720;6.912;2022-08-01T00:28:00;22.10;1.00
15257;DHT22;7731;50.720;6.912;2022-08-01T00:30:31;22.10;1.00
15257;DHT22;7731;50.720;6.912;2022-08-01T00:33:04;22.00;1.00
15257;DHT22;7731;50.720;6.912;2022-08-01T00:35:34;21.90;1.00
15257;DHT22;7731;50.720;6.912;2022-08-01T00:38:05;21.90;1.00
15257;DHT22;7731;50.720;6.912;2022-08-01T00:40:35;21.90;1.00
15257;DHT22;7731;50.720;6.912;2022-08-01T00:43:05;21.80;1.00
15257;DHT22;7731;50.720;6.912;2022-08-01T00:45:35;21.80;1.00
15257;DHT22;7731;50.720;6.912;2022-08-01T00:48:08;21.70;1.00
15257;DHT22;7731;50.720;6.912;2022-08-01T00:50:39;21.70;1.00
15257;DHT22;7731;50.720;6.912;2022-08-01T00:53:10;21.60;1.00
15257;DHT22;7731;50.720;6.912;2022-08-01T00:55:45;21.60;1.00
15257;DHT22;7731;50.720;6.912;2022-08-01T00:58:17;21.70;1.00
15257;DHT22;7731;50.720;6.912;2022-08-01T01:00:50;21.80;1.00
15257;DHT22;7731;50.720;6.912;2022-08-01T01:03:26;21.80;1.00
15257;DHT22;7731;50.720;6.912;2022-08-01T01:06:26;21.80;1.00
15257;DHT22;7731;50.720;6.912;2022-08-01T01:09:13;21.80;1.00
15257;DHT22;7731;50.720;6.912;2022-08-01T01:12:01;21.80;1.00
15257;DHT22;7731;50.720;6.912;2022-08-01T01:14:45;21.80;1.00
15257;DHT22;7731;50.720;6.912;2022-08-01T01:17:28;21.60;1.00
15257;DHT22;7731;50.720;6.912;2022-08-01T01:20:26;21.60;1.00
15257;DHT22;7731;50.720;6.912;2022-08-01T01:23:21;21.50;1.00
15257;DHT22;7731;50.720;6.912;2022-08-01T01:26:25;21.40;3.00
15257;DHT22;7731;50.720;6.912;2022-08-01T01:29:06;21.40;11.60
15257;DHT22;7731;50.720;6.912;2022-08-01T01:31:44;21.40;22.10
15257;DHT22;7731;50.720;6.912;2022-08-01T01:34:20;21.40;15.80
15257;DHT22;7731;50.720;6.912;2022-08-01T01:36:54;21.40;26.50
15257;DHT22;7731;50.720;6.912;2022-08-01T01:39:29;21.30;34.80
15257;DHT22;7731;50.720;6.912;2022-08-01T01:42:02;21.30;37.30
15257;DHT22;7731;50.720;6.912;2022-08-01T01:44:42;21.20;48.60
15257;DHT22;7731;50.720;6.912;2022-08-01T01:47:14;21.30;47.40
15257;DHT22;7731;50.720;6.912;2022-08-01T01:49:48;21.20;63.40
15257;DHT22;7731;50.720;6.912;2022-08-01T01:52:19;21.20;59.90
15257;DHT22;7731;50.720;6.912;2022-08-01T01:54:52;21.20;65.90
15257;DHT22;7731;50.720;6.912;2022-08-01T01:57:26;21.10;89.00
15257;DHT22;7731;50.720;6.912;2022-08-01T02:00:04;21.10;81.10
15257;DHT22;7731;50.720;6.912;2022-08-01T02:02:36;21.10;86.90
15257;DHT22;7731;50.720;6.912;2022-08-01T02:05:10;21.10;89.50
15257;DHT22;7731;50.720;6.912;2022-08-01T02:07:41;21.10;80.40
15257;DHT22;7731;50.720;6.912;2022-08-01T02:10:16;21.10;92.90
15257;DHT22;7731;50.720;6.912;2022-08-01T02:12:55;21.00;92.80
15257;DHT22;7731;50.720;6.912;2022-08-01T02:15:34;21.00;98.50
15257;DHT22;7731;50.720;6.912;2022-08-01T02:18:26;21.00;99.90
15257;DHT22;7731;50.720;6.912;2022-08-01T02:20:58;21.10;95.00
15257;DHT22;7731;50.720;6.912;2022-08-01T02:23:32;21.10;95.00
15257;DHT22;7731;50.720;6.912;2022-08-01T02:26:10;21.10;99.90
15257;DHT22;7731;50.720;6.912;2022-08-01T02:28:49;21.20;88.00
15257;DHT22;7731;50.720;6.912;2022-08-01T02:31:26;21.10;99.90
15257;DHT22;7731;50.720;6.912;2022-08-01T02:34:02;21.10;99.90
15257;DHT22;7731;50.720;6.912;2022-08-01T02:36:36;21.10;99.90
15257;DHT22;7731;50.720;6.912;2022-08-01T02:39:09;21.10;99.90
15257;DHT22;7731;50.720;6.912;2022-08-01T02:41:46;21.20;99.90
15257;DHT22;7731;50.720;6.912;2022-08-01T02:44:23;21.10;99.90
15257;DHT22;7731;50.720;6.912;2022-08-01T02:47:01;21.10;99.90
15257;DHT22;7731;50.720;6.912;2022-08-01T02:49:41;21.10;99.90
15257;DHT22;7731;50.720;6.912;2022-08-01T02:52:21;21.10;99.90
15257;DHT22;7731;50.720;6.912;2022-08-01T02:54:56;21.10;99.90
15257;DHT22;7731;50.720;6.912;2022-08-01T02:57:29;21.10;99.90
15257;DHT22;7731;50.720;6.912;2022-08-01T03:00:18;21.00;99.90
15257;DHT22;7731;50.720;6.912;2022-08-01T03:02:53;21.10;99.90
15257;DHT22;7731;50.720;6.912;2022-08-01T03:05:26;21.00;99.90
15257;DHT22;7731;50.720;6.912;2022-08-01T03:07:58;21.00;99.90
15257;DHT22;7731;50.720;6.912;2022-08-01T03:10:40;21.00;99.90
15257;DHT22;7731;50.720;6.912;2022-08-01T03:13:14;21.00;99.90
15257;DHT22;7731;50.720;6.912;2022-08-01T03:15:47;21.00;99.90
15257;DHT22;7731;50.720;6.912;2022-08-01T03:18:22;20.90;99.90
15257;DHT22;7731;50.720;6.912;2022-08-01T03:20:56;20.90;99.90
15257;DHT22;7731;50.720;6.912;2022-08-01T03:23:30;20.90;99.90
15257;DHT22;7731;50.720;6.912;2022-08-01T03:26:05;20.90;99.90
15257;DHT22;7731;50.720;6.912;2022-08-01T03:28:36;20.90;99.90
15257;DHT22;7731;50.720;6.912;2022-08-01T03:31:10;20.90;99.90
15257;DHT22;7731;50.720;6.912;2022-08-01T03:33:46;20.90;99.90
15257;DHT22;7731;50.720;6.912;2022-08-01T03:36:20;20.80;99.90
15257;DHT22;7731;50.720;6.912;2022-08-01T03:38:57;20.80;99.90
15257;DHT22;7731;50.720;6.912;2022-08-01T03:41:36;20.80;99.90
15257;DHT22;7731;50.720;6.912;2022-08-01T03:44:32;20.80;99.90
15257;DHT22;7731;50.720;6.912;2022-08-01T03:47:08;20.80;99.90
15257;DHT22;7731;50.720;6.912;2022-08-01T03:49:44;20.80;99.90
15257;DHT22;7731;50.720;6.912;2022-08-01T03:52:15;20.80;99.90
15257;DHT22;7731;50.720;6.912;2022-08-01T03:54:47;20.70;99.90
15257;DHT22;7731;50.720;6.912;2022-08-01T03:57:20;20.80;99.90
15257;DHT22;7731;50.720;6.912;2022-08-01T04:00:05;20.80;99.90
15257;DHT22;7731;50.720;6.912;2022-08-01T04:02:37;20.70;99.90
15257;DHT22;7731;50.720;6.912;2022-08-01T04:05:16;20.80;99.90
15257;DHT22;7731;50.720;6.912;2022-08-01T04:07:52;20.80;99.90
15257;DHT22;7731;50.720;6.912;2022-08-01T04:10:32;20.80;99.90
15257;DHT22;7731;50.720;6.912;2022-08-01T04:13:26;20.80;99.90
15257;DHT22;7731;50.720;6.912;2022-08-01T04:16:01;20.80;99.90
15257;DHT22;7731;50.720;6.912;2022-08-01T04:18:36;20.90;99.90
15257;DHT22;7731;50.720;6.912;2022-08-01T04:21:18;20.80;99.90
15257;DHT22;7731;50.720;6.912;2022-08-01T04:24:03;20.90;99.90
15257;DHT22;7731;50.720;6.912;2022-08-01T04:26:45;20.90;99.90
15257;DHT22;7731;50.720;6.912;2022-08-01T04:29:23;20.90;99.90
15257;DHT22;7731;50.720;6.912;2022-08-01T04:32:01;21.00;99.90
15257;DHT22;7731;50.720;6.912;2022-08-01T04:34:39;21.10;99.90
15257;DHT22;7731;50.720;6.912;2022-08-01T04:37:22;21.10;99.90
15257;DHT22;7731;50.720;6.912;2022-08-01T04:40:00;21.20;99.90
15257;DHT22;7731;50.720;6.912;2022-08-01T04:42:36;21.20;99.90
15257;DHT22;7731;50.720;6.912;2022-08-01T04:45:12;21.10;99.90
15257;DHT22;7731;50.720;6.912;2022-08-01T04:47:49;21.10;99.90
15257;DHT22;7731;50.720;6.912;2022-08-01T04:50:26;21.20;99.90
15257;DHT22;7731;50.720;6.912;2022-08-01T04:53:13;21.10;99.90
15257;DHT22;7731;50.720;6.912;2022-08-01T04:55:45;21.10;99.90
15257;DHT22;7731;50.720;6.912;2022-08-01T04:58:15;21.20;99.90
15257;DHT22;7731;50.720;6.912;2022-08-01T05:00:46;21.20;99.90
15257;DHT22;7731;50.720;6.912;2022-08-01T05:03:16;21.30;99.90
15257;DHT22;7731;50.720;6.912;2022-08-01T05:05:47;21.40;99.90
15257;DHT22;7731;50.720;6.912;2022-08-01T05:08:19;21.40;99.90
15257;DHT22;7731;50.720;6.912;2022-08-01T05:10:50;21.40;99.90
15257;DHT22;7731;50.720;6.912;2022-08-01T05:13:20;21.40;99.90
15257;DHT22;7731;50.720;6.912;2022-08-01T05:15:50;21.30;99.90
15257;DHT22;7731;50.720;6.912;2022-08-01T05:18:20;21.20;99.90
15257;DHT22;7731;50.720;6.912;2022-08-01T05:20:54;21.10;99.90
15257;DHT22;7731;50.720;6.912;2022-08-01T05:23:27;21.20;99.90
15257;DHT22;7731;50.720;6.912;2022-08-01T05:26:09;21.30;99.90
15257;DHT22;7731;50.720;6.912;2022-08-01T05:28:41;21.30;99.90
15257;DHT22;7731;50.720;6.912;2022-08-01T05:31:12;21.40;99.90
15257;DHT22;7731;50.720;6.912;2022-08-01T05:33:42;21.40;99.90
15257;DHT22;7731;50.720;6.912;2022-08-01T05:36:13;21.40;99.90
15257;DHT22;7731;50.720;6.912;2022-08-01T05:38:46;21.30;99.90
15257;DHT22;7731;50.720;6.912;2022-08-01T05:41:16;21.20;99.90
15257;DHT22;7731;50.720;6.912;2022-08-01T05:43:47;21.10;99.90
15257;DHT22;7731;50.720;6.912;2022-08-01T05:46:17;21.10;99.90
15257;DHT22;7731;50.720;6.912;2022-08-01T05:48:49;21.30;99.90
15257;DHT22;7731;50.720;6.912;2022-08-01T05:51:19;21.30;99.90
15257;DHT22;7731;50.720;6.912;2022-08-01T05:54:11;21.30;99.90
15257;DHT22;7731;50.720;6.912;2022-08-01T05:56:41;21.20;99.90
15257;DHT22;7731;50.720;6.912;2022-08-01T05:59:11;21.20;99.90
15257;DHT22;7731;50.720;6.912;2022-08-01T06:01:42;21.10;99.90
15257;DHT22;7731;50.720;6.912;2022-08-01T06:04:13;21.10;99.90
15257;DHT22;7731;50.720;6.912;2022-08-01T06:06:44;21.10;99.90
15257;DHT22;7731;50.720;6.912;2022-08-01T06:09:17;21.10;99.90
15257;DHT22;7731;50.720;6.912;2022-08-01T06:11:47;21.10;99.90
15257;DHT22;7731;50.720;6.912;2022-08-01T06:14:17;21.20;99.90
15257;DHT22;7731;50.720;6.912;2022-08-01T06:16:48;21.30;99.90
15257;DHT22;7731;50.720;6.912;2022-08-01T06:19:18;21.20;99.90
15257;DHT22;7731;50.720;6.912;2022-08-01T06:21:49;21.20;99.90
15257;DHT22;7731;50.720;6.912;2022-08-01T06:24:21;21.20;99.90
15257;DHT22;7731;50.720;6.912;2022-08-01T06:26:52;21.40;99.90
15257;DHT22;7731;50.720;6.912;2022-08-01T06:29:22;21.50;99.90
15257;DHT22;7731;50.720;6.912;2022-08-01T06:31:57;21.40;99.90
15257;DHT22;7731;50.720;6.912;2022-08-01T06:34:27;21.40;99.90
15257;DHT22;7731;50.720;6.912;2022-08-01T06:36:57;21.40;99.90
15257;DHT22;7731;50.720;6.912;2022-08-01T06:39:35;21.60;99.90
15257;DHT22;7731;50.720;6.912;2022-08-01T06:42:05;21.90;99.90
15257;DHT22;7731;50.720;6.912;2022-08-01T06:44:36;22.00;98.60
15257;DHT22;7731;50.720;6.912;2022-08-01T06:47:06;22.40;43.90
15257;DHT22;7731;50.720;6.912;2022-08-01T06:49:36;22.90;1.00
15257;DHT22;7731;50.720;6.912;2022-08-01T06:52:07;23.20;1.00
15257;DHT22;7731;50.720;6.912;2022-08-01T06:54:40;23.40;1.00
15257;DHT22;7731;50.720;6.912;2022-08-01T06:57:10;23.70;1.00
15257;DHT22;7731;50.720;6.912;2022-08-01T06:59:40;23.10;1.00
15257;DHT22;7731;50.720;6.912;2022-08-01T07:02:20;22.90;1.00
15257;DHT22;7731;50.720;6.912;2022-08-01T07:04:51;22.80;1.00
15257;DHT22;7731;50.720;6.912;2022-08-01T07:07:21;22.40;32.70
15257;DHT22;7731;50.720;6.912;2022-08-01T07:09:55;22.40;50.10
15257;DHT22;7731;50.720;6.912;2022-08-01T07:12:25;22.60;16.50
15257;DHT22;7731;50.720;6.912;2022-08-01T07:14:55;22.70;1.00
15257;DHT22;7731;50.720;6.912;2022-08-01T07:17:26;22.80;1.00
15257;DHT22;7731;50.720;6.912;2022-08-01T07:19:56;23.20;1.00
15257;DHT22;7731;50.720;6.912;2022-08-01T07:22:27;23.10;1.00
15257;DHT22;7731;50.720;6.912;2022-08-01T07:25:07;22.70;1.00
15257;DHT22;7731;50.720;6.912;2022-08-01T07:27:38;22.80;1.00
15257;DHT22;7731;50.720;6.912;2022-08-01T07:30:09;23.00;1.00
15257;DHT22;7731;50.720;6.912;2022-08-01T07:32:40;23.20;1.00
15257;DHT22;7731;50.720;6.912;2022-08-01T07:35:10;23.20;1.00
15257;DHT22;7731;50.720;6.912;2022-08-01T07:37:40;23.20;1.00
15257;DHT22;7731;50.720;6.912;2022-08-01T07:40:18;23.20;1.00
15257;DHT22;7731;50.720;6.912;2022-08-01T07:42:48;23.40;1.00
15257;DHT22;7731;50.720;6.912;2022-08-01T07:45:19;23.50;1.00
15257;DHT22;7731;50.720;6.912;2022-08-01T07:47:49;23.50;1.00
15257;DHT22;7731;50.720;6.912;2022-08-01T07:50:19;23.70;1.00
15257;DHT22;7731;50.720;6.912;2022-08-01T07:52:49;24.10;1.00
15257;DHT22;7731;50.720;6.912;2022-08-01T07:55:22;24.70;1.00
15257;DHT22;7731;50.720;6.912;2022-08-01T07:57:53;24.80;99.90
15257;DHT22;7731;50.720;6.912;2022-08-01T08:00:23;24.70;99.90
15257;DHT22;7731;50.720;6.912;2022-08-01T08:02:54;24.50;99.90
15257;DHT22;7731;50.720;6.912;2022-08-01T08:05:26;24.60;99.90
15257;DHT22;7731;50.720;6.912;2022-08-01T08:08:16;24.60;99.90
15257;DHT22;7731;50.720;6.912;2022-08-01T08:10:50;24.50;1.00
15257;DHT22;7731;50.720;6.912;2022-08-01T08:13:20;24.70;99.90
15257;DHT22;7731;50.720;6.912;2022-08-01T08:15:51;24.50;99.90
15257;DHT22;7731;50.720;6.912;2022-08-01T08:18:24;24.00;1.00
15257;DHT22;7731;50.720;6.912;2022-08-01T08:20:54;23.60;1.00
15257;DHT22;7731;50.720;6.912;2022-08-01T08:23:29;23.50;1.00
15257;DHT22;7731;50.720;6.912;2022-08-01T08:26:14;23.70;1.00
15257;DHT22;7731;50.720;6.912;2022-08-01T08:28:44;23.50;1.00
15257;DHT22;7731;50.720;6.912;2022-08-01T08:31:15;23.30;1.00
15257;DHT22;7731;50.720;6.912;2022-08-01T08:33:52;23.30;1.00
15257;DHT22;7731;50.720;6.912;2022-08-01T08:36:22;23.80;1.00
15257;DHT22;7731;50.720;6.912;2022-08-01T08:38:57;24.20;1.00
15257;DHT22;7731;50.720;6.912;2022-08-01T08:41:32;24.90;99.90
15257;DHT22;7731;50.720;6.912;2022-08-01T08:44:06;25.40;1.00
15257;DHT22;7731;50.720;6.912;2022-08-01T08:46:41;25.50;99.90
15257;DHT22;7731;50.720;6.912;2022-08-01T08:49:16;25.40;99.90
15257;DHT22;7731;50.720;6.912;2022-08-01T08:51:50;25.40;99.90
15257;DHT22;7731;50.720;6.912;2022-08-01T08:54:22;25.10;99.90
15257;DHT22;7731;50.720;6.912;2022-08-01T08:57:00;24.60;94.80
15257;DHT22;7731;50.720;6.912;2022-08-01T08:59:31;24.40;99.90
15257;DHT22;7731;50.720;6.912;2022-08-01T09:02:01;24.00;1.00
15257;DHT22;7731;50.720;6.912;2022-08-01T09:04:34;24.00;1.00
15257;DHT22;7731;50.720;6.912;2022-08-01T09:07:07;24.10;99.90
15257;DHT22;7731;50.720;6.912;2022-08-01T09:09:38;24.40;1.00
15257;DHT22;7731;50.720;6.912;2022-08-01T09:12:16;24.70;1.00
15257;DHT22;7731;50.720;6.912;2022-08-01T09:14:47;24.80;1.00
15257;DHT22;7731;50.720;6.912;2022-08-01T09:17:20;25.70;1.00
15257;DHT22;7731;50.720;6.912;2022-08-01T09:19:52;26.00;99.90
15257;DHT22;7731;50.720;6.912;2022-08-01T09:22:25;27.80;1.00
15257;DHT22;7731;50.720;6.912;2022-08-01T09:25:14;29.50;1.00
15257;DHT22;7731;50.720;6.912;2022-08-01T09:27:46;30.30;1.00
15257;DHT22;7731;50.720;6.912;2022-08-01T09:30:19;30.50;1.00
15257;DHT22;7731;50.720;6.912;2022-08-01T09:32:53;29.50;1.00
15257;DHT22;7731;50.720;6.912;2022-08-01T09:35:29;28.30;99.90
15257;DHT22;7731;50.720;6.912;2022-08-01T09:38:17;28.10;1.00
15257;DHT22;7731;50.720;6.912;2022-08-01T09:40:51;29.00;62.50
15257;DHT22;7731;50.720;6.912;2022-08-01T09:43:28;30.20;1.00
15257;DHT22;7731;50.720;6.912;2022-08-01T09:46:04;31.70;99.90
15257;DHT22;7731;50.720;6.912;2022-08-01T09:48:39;31.70;99.90
15257;DHT22;7731;50.720;6.912;2022-08-01T09:51:29;32.20;99.90
15257;DHT22;7731;50.720;6.912;2022-08-01T09:54:28;32.00;99.90
15257;DHT22;7731;50.720;6.912;2022-08-01T09:57:12;29.80;1.00
15257;DHT22;7731;50.720;6.912;2022-08-01T09:59:48;28.90;1.00
15257;DHT22;7731;50.720;6.912;2022-08-01T10:02:34;28.20;1.00
15257;DHT22;7731;50.720;6.912;2022-08-01T10:05:08;28.00;99.90
15257;DHT22;7731;50.720;6.912;2022-08-01T10:07:58;28.00;99.90
15257;DHT22;7731;50.720;6.912;2022-08-01T10:10:34;27.60;1.00
15257;DHT22;7731;50.720;6.912;2022-08-01T10:13:04;27.10;1.00
15257;DHT22;7731;50.720;6.912;2022-08-01T10:15:38;26.90;1.00
15257;DHT22;7731;50.720;6.912;2022-08-01T10:18:10;26.80;99.90
15257;DHT22;7731;50.720;6.912;2022-08-01T10:20:51;27.40;1.00
15257;DHT22;7731;50.720;6.912;2022-08-01T10:23:26;27.20;1.00
15257;DHT22;7731;50.720;6.912;2022-08-01T10:26:08;26.50;1.00
15257;DHT22;7731;50.720;6.912;2022-08-01T10:28:44;25.90;84.80
15257;DHT22;7731;50.720;6.912;2022-08-01T10:31:20;25.50;15.00
15257;DHT22;7731;50.720;6.912;2022-08-01T10:33:57;25.30;32.60
15257;DHT22;7731;50.720;6.912;2022-08-01T10:36:30;25.20;99.90
15257;DHT22;7731;50.720;6.912;2022-08-01T10:39:10;25.90;99.90
15257;DHT22;7731;50.720;6.912;2022-08-01T10:41:46;27.80;1.00
15257;DHT22;7731;50.720;6.912;2022-08-01T10:49:45;29.30;1.00
15257;DHT22;7731;50.720;6.912;2022-08-01T10:52:23;29.40;1.00
15257;DHT22;7731;50.720;6.912;2022-08-01T11:08:21;27.90;41.60
15257;DHT22;7731;50.720;6.912;2022-08-01T11:11:00;27.40;99.90
15257;DHT22;7731;50.720;6.912;2022-08-01T11:14:01;27.20;1.00
15257;DHT22;7731;50.720;6.912;2022-08-01T11:16:36;27.00;1.00
15257;DHT22;7731;50.720;6.912;2022-08-01T11:19:09;26.90;1.00
15257;DHT22;7731;50.720;6.912;2022-08-01T11:22:00;26.90;1.00
15257;DHT22;7731;50.720;6.912;2022-08-01T11:24:59;27.20;1.00
15257;DHT22;7731;50.720;6.912;2022-08-01T11:27:31;27.10;1.00
15257;DHT22;7731;50.720;6.912;2022-08-01T11:30:22;27.40;99.90
15257;DHT22;7731;50.720;6.912;2022-08-01T11:32:57;27.70;99.90
15257;DHT22;7731;50.720;6.912;2022-08-01T11:39:16;27.30;1.00
15257;DHT22;7731;50.720;6.912;2022-08-01T11:41:49;26.80;1.00
15257;DHT22;7731;50.720;6.912;2022-08-01T11:44:23;26.60;1.00
15257;DHT22;7731;50.720;6.912;2022-08-01T11:47:04;26.30;75.80
15257;DHT22;7731;50.720;6.912;2022-08-01T11:49:47;26.40;1.00
15257;DHT22;7731;50.720;6.912;2022-08-01T11:52:37;26.40;99.90
15257;DHT22;7731;50.720;6.912;2022-08-01T11:55:09;26.50;45.60
15257;DHT22;7731;50.720;6.912;2022-08-01T11:57:45;26.20;99.90
15257;DHT22;7731;50.720;6.912;2022-08-01T12:00:17;25.90;1.00
15257;DHT22;7731;50.720;6.912;2022-08-01T12:02:57;25.70;99.90
15257;DHT22;7731;50.720;6.912;2022-08-01T12:05:32;25.70;99.90
15257;DHT22;7731;50.720;6.912;2022-08-01T12:08:09;25.80;99.90
15257;DHT22;7731;50.720;6.912;2022-08-01T12:10:39;25.90;1.00
15257;DHT22;7731;50.720;6.912;2022-08-01T12:13:18;25.80;16.10
15257;DHT22;7731;50.720;6.912;2022-08-01T12:15:48;25.70;99.90
15257;DHT22;7731;50.720;6.912;2022-08-01T12:18:22;25.70;72.90
15257;DHT22;7731;50.720;6.912;2022-08-01T12:21:02;25.80;1.00
15257;DHT22;7731;50.720;6.912;2022-08-01T12:23:33;25.80;1.00
15257;DHT22;7731;50.720;6.912;2022-08-01T12:26:03;26.10;99.90
15257;DHT22;7731;50.720;6.912;2022-08-01T12:28:56;26.50;12.40
15257;DHT22;7731;50.720;6.912;2022-08-01T12:31:33;27.00;1.00
15257;DHT22;7731;50.720;6.912;2022-08-01T12:34:24;27.50;99.90
15257;DHT22;7731;50.720;6.912;2022-08-01T12:36:56;28.20;92.80
15257;DHT22;7731;50.720;6.912;2022-08-01T12:39:31;28.40;1.00
15257;DHT22;7731;50.720;6.912;2022-08-01T12:42:07;28.00;1.00
15257;DHT22;7731;50.720;6.912;2022-08-01T12:44:44;28.10;1.00
15257;DHT22;7731;50.720;6.912;2022-08-01T12:47:16;28.20;1.00
15257;DHT22;7731;50.720;6.912;2022-08-01T12:49:49;28.70;1.00
15257;DHT22;7731;50.720;6.912;2022-08-01T12:52:19;29.10;1.00
15257;DHT22;7731;50.720;6.912;2022-08-01T12:55:11;28.90;1.00
15257;DHT22;7731;50.720;6.912;2022-08-01T12:57:46;28.70;1.00
15257;DHT22;7731;50.720;6.912;2022-08-01T13:00:24;29.20;1.00
15257;DHT22;7731;50.720;6.912;2022-08-01T13:03:02;29.30;1.00
15257;DHT22;7731;50.720;6.912;2022-08-01T13:05:45;28.80;1.00
15257;DHT22;7731;50.720;6.912;2022-08-01T13:08:19;28.40;1.00
15257;DHT22;7731;50.720;6.912;2022-08-01T13:10:55;28.30;1.00
15257;DHT22;7731;50.720;6.912;2022-08-01T13:13:39;28.30;1.00
15257;DHT22;7731;50.720;6.912;2022-08-01T13:16:16;28.10;99.90
15257;DHT22;7731;50.720;6.912;2022-08-01T13:19:05;27.90;1.00
15257;DHT22;7731;50.720;6.912;2022-08-01T13:21:37;27.50;1.00
15257;DHT22;7731;50.720;6.912;2022-08-01T13:24:24;27.50;1.00
15257;DHT22;7731;50.720;6.912;2022-08-01T13:26:59;27.50;1.00
15257;DHT22;7731;50.720;6.912;2022-08-01T13:29:35;27.10;1.00
15257;DHT22;7731;50.720;6.912;2022-08-01T13:32:16;27.10;1.00
15257;DHT22;7731;50.720;6.912;2022-08-01T13:35:03;26.70;1.00
15257;DHT22;7731;50.720;6.912;2022-08-01T13:37:36;26.40;1.00
15257;DHT22;7731;50.720;6.912;2022-08-01T13:40:09;26.20;1.00
15257;DHT22;7731;50.720;6.912;2022-08-01T13:42:41;26.20;1.00
15257;DHT22;7731;50.720;6.912;2022-08-01T13:45:12;26.30;1.00
15257;DHT22;7731;50.720;6.912;2022-08-01T13:47:50;26.40;1.00
15257;DHT22;7731;50.720;6.912;2022-08-01T13:50:41;26.20;1.00
15257;DHT22;7731;50.720;6.912;2022-08-01T13:53:33;26.10;1.00
15257;DHT22;7731;50.720;6.912;2022-08-01T13:56:04;26.00;1.00
15257;DHT22;7731;50.720;6.912;2022-08-01T13:58:34;26.00;1.00
15257;DHT22;7731;50.720;6.912;2022-08-01T14:01:04;26.00;1.00
15257;DHT22;7731;50.720;6.912;2022-08-01T14:03:38;26.00;13.80
15257;DHT22;7731;50.720;6.912;2022-08-01T14:06:27;26.10;3.90
15257;DHT22;7731;50.720;6.912;2022-08-01T14:08:57;26.10;28.90
15257;DHT22;7731;50.720;6.912;2022-08-01T14:11:43;26.10;39.50
15257;DHT22;7731;50.720;6.912;2022-08-01T14:14:13;26.00;1.00
15257;DHT22;7731;50.720;6.912;2022-08-01T14:16:44;25.90;1.00
15257;DHT22;7731;50.720;6.912;2022-08-01T14:19:17;25.80;21.20
15257;DHT22;7731;50.720;6.912;2022-08-01T14:22:04;25.50;1.00
15257;DHT22;7731;50.720;6.912;2022-08-01T14:24:35;25.50;1.00
15257;DHT22;7731;50.720;6.912;2022-08-01T14:27:07;25.50;1.00
15257;DHT22;7731;50.720;6.912;2022-08-01T14:29:37;25.60;1.00
15257;DHT22;7731;50.720;6.912;2022-08-01T14:32:28;25.80;1.00
15257;DHT22;7731;50.720;6.912;2022-08-01T14:35:04;26.30;1.00
15257;DHT22;7731;50.720;6.912;2022-08-01T14:37:35;26.40;1.00
15257;DHT22;7731;50.720;6.912;2022-08-01T14:40:07;26.50;1.00
15257;DHT22;7731;50.720;6.912;2022-08-01T14:42:39;27.10;1.00
15257;DHT22;7731;50.720;6.912;2022-08-01T14:45:12;27.40;1.00
15257;DHT22;7731;50.720;6.912;2022-08-01T14:47:43;27.50;1.00
15257;DHT22;7731;50.720;6.912;2022-08-01T14:50:16;27.50;1.00
15257;DHT22;7731;50.720;6.912;2022-08-01T14:52:46;27.90;1.00
15257;DHT22;7731;50.720;6.912;2022-08-01T14:55:17;28.30;1.00
15257;DHT22;7731;50.720;6.912;2022-08-01T14:57:50;28.50;1.00
15257;DHT22;7731;50.720;6.912;2022-08-01T15:00:21;28.70;1.00
15257;DHT22;7731;50.720;6.912;2022-08-01T15:02:51;28.50;99.90
15257;DHT22;7731;50.720;6.912;2022-08-01T15:05:24;28.50;99.90
15257;DHT22;7731;50.720;6.912;2022-08-01T15:07:55;28.30;99.90
15257;DHT22;7731;50.720;6.912;2022-08-01T15:10:26;28.20;1.00
15257;DHT22;7731;50.720;6.912;2022-08-01T15:12:59;27.80;1.00
15257;DHT22;7731;50.720;6.912;2022-08-01T15:15:29;27.40;1.00
15257;DHT22;7731;50.720;6.912;2022-08-01T15:17:59;27.20;1.00
15257;DHT22;7731;50.720;6.912;2022-08-01T15:20:32;27.10;1.00
15257;DHT22;7731;50.720;6.912;2022-08-01T15:23:02;27.00;1.00
15257;DHT22;7731;50.720;6.912;2022-08-01T15:25:33;27.10;1.00
15257;DHT22;7731;50.720;6.912;2022-08-01T15:28:07;27.20;1.00
15257;DHT22;7731;50.720;6.912;2022-08-01T15:30:38;27.10;1.00
15257;DHT22;7731;50.720;6.912;2022-08-01T15:33:09;27.10;1.00
15257;DHT22;7731;50.720;6.912;2022-08-01T15:35:42;27.20;1.00
15257;DHT22;7731;50.720;6.912;2022-08-01T15:38:12;27.10;1.00
15257;DHT22;7731;50.720;6.912;2022-08-01T15:40:43;27.10;1.00
15257;DHT22;7731;50.720;6.912;2022-08-01T15:43:14;27.10;1.00
15257;DHT22;7731;50.720;6.912;2022-08-01T15:45:44;26.90;1.00
15257;DHT22;7731;50.720;6.912;2022-08-01T15:48:16;26.80;1.00
15257;DHT22;7731;50.720;6.912;2022-08-01T15:50:49;26.90;1.00
15257;DHT22;7731;50.720;6.912;2022-08-01T15:53:19;27.10;1.00
15257;DHT22;7731;50.720;6.912;2022-08-01T15:55:50;27.30;1.00
15257;DHT22;7731;50.720;6.912;2022-08-01T15:58:20;27.10;1.00
15257;DHT22;7731;50.720;6.912;2022-08-01T16:00:50;27.20;1.00
15257;DHT22;7731;50.720;6.912;2022-08-01T16:03:20;27.10;1.00
15257;DHT22;7731;50.720;6.912;2022-08-01T16:05:53;26.90;1.00
15257;DHT22;7731;50.720;6.912;2022-08-01T16:08:24;26.60;1.00
15257;DHT22;7731;50.720;6.912;2022-08-01T16:10:55;26.70;1.00
15257;DHT22;7731;50.720;6.912;2022-08-01T16:13:25;26.90;1.00
15257;DHT22;7731;50.720;6.912;2022-08-01T16:15:55;27.00;1.00
15257;DHT22;7731;50.720;6.912;2022-08-01T16:18:25;26.90;1.00
15257;DHT22;7731;50.720;6.912;2022-08-01T16:20:58;26.90;1.00
15257;DHT22;7731;50.720;6.912;2022-08-01T16:23:29;26.70;1.00
15257;DHT22;7731;50.720;6.912;2022-08-01T16:25:59;26.50;1.00
15257;DHT22;7731;50.720;6.912;2022-08-01T16:28:37;26.40;1.00
15257;DHT22;7731;50.720;6.912;2022-08-01T16:31:08;26.40;1.00
15257;DHT22;7731;50.720;6.912;2022-08-01T16:33:52;26.40;1.00
15257;DHT22;7731;50.720;6.912;2022-08-01T16:36:31;26.30;1.00
15257;DHT22;7731;50.720;6.912;2022-08-01T16:39:01;26.20;1.00
15257;DHT22;7731;50.720;6.912;2022-08-01T16:41:33;26.20;1.00
15257;DHT22;7731;50.720;6.912;2022-08-01T16:44:04;26.10;90.50
15257;DHT22;7731;50.720;6.912;2022-08-01T16:46:34;25.80;99.90
15257;DHT22;7731;50.720;6.912;2022-08-01T16:49:04;25.60;99.90
15257;DHT22;7731;50.720;6.912;2022-08-01T16:51:38;25.50;1.00
15257;DHT22;7731;50.720;6.912;2022-08-01T16:54:14;25.50;1.00
15257;DHT22;7731;50.720;6.912;2022-08-01T16:56:52;25.40;1.00
15257;DHT22;7731;50.720;6.912;2022-08-01T16:59:34;25.20;1.00
15257;DHT22;7731;50.720;6.912;2022-08-01T17:02:08;25.20;99.90
15257;DHT22;7731;50.720;6.912;2022-08-01T17:04:39;25.20;96.00
15257;DHT22;7731;50.720;6.912;2022-08-01T17:07:12;25.10;99.90